sensor_id;sensor_type;location;lat;lon;timestamp;temperature;humidity
47857;DHT22;33618;49.972;8.242;2023-02-01T00:01:15;5.50;99.90
47857;DHT22;33618;49.972;8.242;2023-02-01T00:03:42;5.50;99.90
47857;DHT22;33618;49.972;8.242;2023-02-01T00:06:09;5.50;99.90
47857;DHT22;33618;49.972;8.242;2023-02-01T00:08:36;5.50;99.90
47857;DHT22;33618;49.972;8.242;2023-02-01T00:11:06;5.50;99.90
47857;DHT22;33618;49.972;8.242;2023-02-01T00:13:35;5.50;99.90
47857;DHT22;33618;49.972;8.242;2023-02-01T00:16:17;5.40;99.90
47857;DHT22;33618;49.972;8.242;2023-02-01T00:18:45;5.40;99.90
47857;DHT22;33618;49.972;8.242;2023-02-01T00:21:13;5.40;99.90
47857;DHT22;33618;49.972;8.242;2023-02-01T00:23:41;5.40;99.90
47857;DHT22;33618;49.972;8.242;2023-02-01T00:26:16;5.40;99.90
47857;DHT22;33618;49.972;8.242;2023-02-01T00:28:43;5.40;99.90
47857;DHT22;33618;49.972;8.242;2023-02-01T00:31:11;5.30;99.90
47857;DHT22;33618;49.972;8.242;2023-02-01T00:33:38;5.30;99.90
47857;DHT22;33618;49.972;8.242;2023-02-01T00:36:07;5.30;99.90
47857;DHT22;33618;49.972;8.242;2023-02-01T00:38:36;5.40;99.90
47857;DHT22;33618;49.972;8.242;2023-02-01T00:41:09;5.40;99.90
47857;DHT22;33618;49.972;8.242;2023-02-01T00:43:37;5.40;99.90
47857;DHT22;33618;49.972;8.242;2023-02-01T00:46:04;5.50;99.90
47857;DHT22;33618;49.972;8.242;2023-02-01T00:48:31;5.50;99.90
47857;DHT22;33618;49.972;8.242;2023-02-01T00:51:03;5.50;99.90
47857;DHT22;33618;49.972;8.242;2023-02-01T00:53:31;5.60;99.90
47857;DHT22;33618;49.972;8.242;2023-02-01T00:55:58;5.60;99.90
47857;DHT22;33618;49.972;8.242;2023-02-01T00:58:26;5.60;99.90
47857;DHT22;33618;49.972;8.242;2023-02-01T01:03:44;5.70;99.90
47857;DHT22;33618;49.972;8.242;2023-02-01T01:06:17;5.70;99.90
47857;DHT22;33618;49.972;8.242;2023-02-01T01:08:47;5.70;99.90
47857;DHT22;33618;49.972;8.242;2023-02-01T01:11:20;5.70;99.90
47857;DHT22;33618;49.972;8.242;2023-02-01T01:13:48;5.70;99.90
47857;DHT22;33618;49.972;8.242;2023-02-01T01:16:16;5.70;99.90
47857;DHT22;33618;49.972;8.242;2023-02-01T01:18:44;5.70;99.90
47857;DHT22;33618;49.972;8.242;2023-02-01T01:21:12;5.60;99.90
47857;DHT22;33618;49.972;8.242;2023-02-01T01:23:39;5.60;99.90
47857;DHT22;33618;49.972;8.242;2023-02-01T01:26:08;5.60;99.90
47857;DHT22;33618;49.972;8.242;2023-02-01T01:28:36;5.60;99.90
47857;DHT22;33618;49.972;8.242;2023-02-01T01:31:03;5.70;99.90
47857;DHT22;33618;49.972;8.242;2023-02-01T01:33:30;5.60;99.90
47857;DHT22;33618;49.972;8.242;2023-02-01T01:35:57;5.60;99.90
47857;DHT22;33618;49.972;8.242;2023-02-01T01:38:24;5.60;99.90
47857;DHT22;33618;49.972;8.242;2023-02-01T01:40:51;5.60;99.90
47857;DHT22;33618;49.972;8.242;2023-02-01T01:43:20;5.60;99.90
47857;DHT22;33618;49.972;8.242;2023-02-01T01:45:50;5.60;99.90
47857;DHT22;33618;49.972;8.242;2023-02-01T01:48:28;5.60;99.90
47857;DHT22;33618;49.972;8.242;2023-02-01T01:51:08;5.60;99.90
47857;DHT22;33618;49.972;8.242;2023-02-01T01:53:43;5.60;99.90
47857;DHT22;33618;49.972;8.242;2023-02-01T01:56:12;5.60;99.90
47857;DHT22;33618;49.972;8.242;2023-02-01T01:58:39;5.60;99.90
47857;DHT22;33618;49.972;8.242;2023-02-01T02:01:07;5.60;99.90
47857;DHT22;33618;49.972;8.242;2023-02-01T02:03:39;5.60;99.90
47857;DHT22;33618;49.972;8.242;2023-02-01T02:06:18;5.60;99.90
47857;DHT22;33618;49.972;8.242;2023-02-01T02:08:46;5.60;99.90
47857;DHT22;33618;49.972;8.242;2023-02-01T02:11:16;5.60;99.90
47857;DHT22;33618;49.972;8.242;2023-02-01T02:13:48;5.50;99.90
47857;DHT22;33618;49.972;8.242;2023-02-01T02:22:12;5.60;99.90
47857;DHT22;33618;49.972;8.242;2023-02-01T02:30:49;5.60;99.90
47857;DHT22;33618;49.972;8.242;2023-02-01T02:38:56;5.60;99.90
47857;DHT22;33618;49.972;8.242;2023-02-01T02:45:05;5.60;99.90
47857;DHT22;33618;49.972;8.242;2023-02-01T02:51:15;5.60;99.90
47857;DHT22;33618;49.972;8.242;2023-02-01T02:54:10;5.60;99.90
47857;DHT22;33618;49.972;8.242;2023-02-01T02:56:58;5.60;99.90
47857;DHT22;33618;49.972;8.242;2023-02-01T02:59:45;5.60;99.90
47857;DHT22;33618;49.972;8.242;2023-02-01T03:02:33;5.60;99.90
47857;DHT22;33618;49.972;8.242;2023-02-01T03:05:19;5.60;99.90
47857;DHT22;33618;49.972;8.242;2023-02-01T03:08:00;5.60;99.90
47857;DHT22;33618;49.972;8.242;2023-02-01T03:27:27;5.70;99.90
47857;DHT22;33618;49.972;8.242;2023-02-01T03:30:06;5.60;99.90
47857;DHT22;33618;49.972;8.242;2023-02-01T03:32:35;5.60;99.90
47857;DHT22;33618;49.972;8.242;2023-02-01T03:35:32;5.70;99.90
47857;DHT22;33618;49.972;8.242;2023-02-01T03:38:07;5.70;99.90
47857;DHT22;33618;49.972;8.242;2023-02-01T03:40:38;5.70;99.90
47857;DHT22;33618;49.972;8.242;2023-02-01T03:43:10;5.70;99.90
47857;DHT22;33618;49.972;8.242;2023-02-01T03:45:50;5.70;99.90
47857;DHT22;33618;49.972;8.242;2023-02-01T03:48:19;5.60;99.90
47857;DHT22;33618;49.972;8.242;2023-02-01T03:50:50;5.60;99.90
47857;DHT22;33618;49.972;8.242;2023-02-01T03:53:21;5.60;99.90
47857;DHT22;33618;49.972;8.242;2023-02-01T03:55:50;5.60;99.90
47857;DHT22;33618;49.972;8.242;2023-02-01T03:58:19;5.60;99.90
47857;DHT22;33618;49.972;8.242;2023-02-01T04:00:57;5.60;99.90
47857;DHT22;33618;49.972;8.242;2023-02-01T04:03:26;5.60;99.90
47857;DHT22;33618;49.972;8.242;2023-02-01T04:05:54;5.60;99.90
47857;DHT22;33618;49.972;8.242;2023-02-01T04:08:22;5.60;99.90
47857;DHT22;33618;49.972;8.242;2023-02-01T04:10:49;5.50;99.90
47857;DHT22;33618;49.972;8.242;2023-02-01T04:13:16;5.50;99.90
47857;DHT22;33618;49.972;8.242;2023-02-01T04:15:43;5.50;99.90
47857;DHT22;33618;49.972;8.242;2023-02-01T04:18:10;5.50;99.90
47857;DHT22;33618;49.972;8.242;2023-02-01T04:20:37;5.50;99.90
47857;DHT22;33618;49.972;8.242;2023-02-01T04:23:04;5.50;99.90
47857;DHT22;33618;49.972;8.242;2023-02-01T04:25:31;5.60;99.90
47857;DHT22;33618;49.972;8.242;2023-02-01T04:27:58;5.60;99.90
47857;DHT22;33618;49.972;8.242;2023-02-01T04:30:26;5.50;99.90
47857;DHT22;33618;49.972;8.242;2023-02-01T04:32:53;5.50;99.90
47857;DHT22;33618;49.972;8.242;2023-02-01T04:35:20;5.50;99.90
47857;DHT22;33618;49.972;8.242;2023-02-01T04:37:47;5.50;99.90
47857;DHT22;33618;49.972;8.242;2023-02-01T04:40:14;5.40;99.90
47857;DHT22;33618;49.972;8.242;2023-02-01T04:42:41;5.40;99.90
47857;DHT22;33618;49.972;8.242;2023-02-01T04:45:08;5.50;99.90
47857;DHT22;33618;49.972;8.242;2023-02-01T04:47:35;5.50;99.90
47857;DHT22;33618;49.972;8.242;2023-02-01T04:50:03;5.50;99.90
47857;DHT22;33618;49.972;8.242;2023-02-01T04:52:30;5.60;99.90
47857;DHT22;33618;49.972;8.242;2023-02-01T04:54:57;5.60;99.90
47857;DHT22;33618;49.972;8.242;2023-02-01T04:57:26;5.60;99.90
47857;DHT22;33618;49.972;8.242;2023-02-01T04:59:52;5.60;99.90
47857;DHT22;33618;49.972;8.242;2023-02-01T05:02:19;5.50;99.90
47857;DHT22;33618;49.972;8.242;2023-02-01T05:04:46;5.50;99.90
47857;DHT22;33618;49.972;8.242;2023-02-01T05:07:14;5.50;99.90
47857;DHT22;33618;49.972;8.242;2023-02-01T05:09:44;5.40;99.90
47857;DHT22;33618;49.972;8.242;2023-02-01T05:12:12;5.40;99.90
47857;DHT22;33618;49.972;8.242;2023-02-01T05:14:57;5.50;99.90
47857;DHT22;33618;49.972;8.242;2023-02-01T05:17:24;5.60;99.90
47857;DHT22;33618;49.972;8.242;2023-02-01T05:19:51;5.60;99.90
47857;DHT22;33618;49.972;8.242;2023-02-01T05:22:18;5.60;99.90
47857;DHT22;33618;49.972;8.242;2023-02-01T05:24:45;5.60;99.90
47857;DHT22;33618;49.972;8.242;2023-02-01T05:27:12;5.60;99.90
47857;DHT22;33618;49.972;8.242;2023-02-01T05:29:39;5.70;99.90
47857;DHT22;33618;49.972;8.242;2023-02-01T05:32:06;5.60;99.90
47857;DHT22;33618;49.972;8.242;2023-02-01T05:34:47;5.60;99.90
47857;DHT22;33618;49.972;8.242;2023-02-01T05:37:14;5.60;99.90
47857;DHT22;33618;49.972;8.242;2023-02-01T05:39:41;5.60;99.90
47857;DHT22;33618;49.972;8.242;2023-02-01T05:42:08;5.50;99.90
47857;DHT22;33618;49.972;8.242;2023-02-01T05:44:35;5.60;99.90
47857;DHT22;33618;49.972;8.242;2023-02-01T05:47:02;5.60;99.90
47857;DHT22;33618;49.972;8.242;2023-02-01T05:49:29;5.70;99.90
47857;DHT22;33618;49.972;8.242;2023-02-01T05:51:56;5.70;99.90
47857;DHT22;33618;49.972;8.242;2023-02-01T05:54:26;5.70;99.90
47857;DHT22;33618;49.972;8.242;2023-02-01T05:56:53;5.70;99.90
47857;DHT22;33618;49.972;8.242;2023-02-01T05:59:20;5.60;99.90
47857;DHT22;33618;49.972;8.242;2023-02-01T06:01:47;5.60;99.90
47857;DHT22;33618;49.972;8.242;2023-02-01T06:04:14;5.60;99.90
47857;DHT22;33618;49.972;8.242;2023-02-01T06:06:41;5.70;99.90
47857;DHT22;33618;49.972;8.242;2023-02-01T06:09:08;5.70;99.90
47857;DHT22;33618;49.972;8.242;2023-02-01T06:11:35;5.70;99.90
47857;DHT22;33618;49.972;8.242;2023-02-01T06:14:02;5.70;99.90
47857;DHT22;33618;49.972;8.242;2023-02-01T06:16:29;5.80;99.90
47857;DHT22;33618;49.972;8.242;2023-02-01T06:18:58;5.80;99.90
47857;DHT22;33618;49.972;8.242;2023-02-01T06:21:25;5.80;99.90
47857;DHT22;33618;49.972;8.242;2023-02-01T06:23:53;5.70;99.90
47857;DHT22;33618;49.972;8.242;2023-02-01T06:26:20;5.70;99.90
47857;DHT22;33618;49.972;8.242;2023-02-01T06:28:48;5.60;99.90
47857;DHT22;33618;49.972;8.242;2023-02-01T06:31:14;5.60;99.90
47857;DHT22;33618;49.972;8.242;2023-02-01T06:33:42;5.60;99.90
47857;DHT22;33618;49.972;8.242;2023-02-01T06:36:10;5.50;99.90
47857;DHT22;33618;49.972;8.242;2023-02-01T06:38:39;5.60;99.90
47857;DHT22;33618;49.972;8.242;2023-02-01T06:41:16;5.60;99.90
47857;DHT22;33618;49.972;8.242;2023-02-01T06:43:43;5.60;99.90
47857;DHT22;33618;49.972;8.242;2023-02-01T06:46:12;5.50;99.90
47857;DHT22;33618;49.972;8.242;2023-02-01T06:48:39;5.50;99.90
47857;DHT22;33618;49.972;8.242;2023-02-01T06:51:19;5.50;99.90
47857;DHT22;33618;49.972;8.242;2023-02-01T06:53:47;5.50;99.90
47857;DHT22;33618;49.972;8.242;2023-02-01T06:56:14;5.50;99.90
47857;DHT22;33618;49.972;8.242;2023-02-01T06:58:41;5.40;99.90
47857;DHT22;33618;49.972;8.242;2023-02-01T07:01:09;5.40;99.90
47857;DHT22;33618;49.972;8.242;2023-02-01T07:03:38;5.50;99.90
47857;DHT22;33618;49.972;8.242;2023-02-01T07:06:05;5.50;99.90
47857;DHT22;33618;49.972;8.242;2023-02-01T07:08:35;5.50;99.90
47857;DHT22;33618;49.972;8.242;2023-02-01T07:11:10;5.50;99.90
47857;DHT22;33618;49.972;8.242;2023-02-01T07:13:38;5.50;99.90
47857;DHT22;33618;49.972;8.242;2023-02-01T07:16:09;5.50;99.90
47857;DHT22;33618;49.972;8.242;2023-02-01T07:18:36;5.50;99.90
47857;DHT22;33618;49.972;8.242;2023-02-01T07:21:04;5.40;99.90
47857;DHT22;33618;49.972;8.242;2023-02-01T07:23:31;5.50;99.90
47857;DHT22;33618;49.972;8.242;2023-02-01T07:26:00;5.40;99.90
47857;DHT22;33618;49.972;8.242;2023-02-01T07:28:29;5.40;99.90
47857;DHT22;33618;49.972;8.242;2023-02-01T07:31:05;5.50;99.90
47857;DHT22;33618;49.972;8.242;2023-02-01T07:33:33;5.50;99.90
47857;DHT22;33618;49.972;8.242;2023-02-01T07:36:02;5.50;99.90
47857;DHT22;33618;49.972;8.242;2023-02-01T07:38:30;5.50;99.90
47857;DHT22;33618;49.972;8.242;2023-02-01T07:41:02;5.50;99.90
47857;DHT22;33618;49.972;8.242;2023-02-01T07:43:29;5.50;99.90
47857;DHT22;33618;49.972;8.242;2023-02-01T07:45:57;5.60;99.90
47857;DHT22;33618;49.972;8.242;2023-02-01T07:48:25;5.50;99.90
47857;DHT22;33618;49.972;8.242;2023-02-01T07:51:02;5.50;99.90
47857;DHT22;33618;49.972;8.242;2023-02-01T07:53:31;5.60;99.90
47857;DHT22;33618;49.972;8.242;2023-02-01T07:55:59;5.60;99.90
47857;DHT22;33618;49.972;8.242;2023-02-01T07:58:27;5.60;99.90
47857;DHT22;33618;49.972;8.242;2023-02-01T08:00:55;5.60;99.90
47857;DHT22;33618;49.972;8.242;2023-02-01T08:03:41;5.60;99.90
47857;DHT22;33618;49.972;8.242;2023-02-01T08:06:09;5.60;99.90
47857;DHT22;33618;49.972;8.242;2023-02-01T08:08:37;5.70;99.90
47857;DHT22;33618;49.972;8.242;2023-02-01T08:11:05;5.70;99.90
47857;DHT22;33618;49.972;8.242;2023-02-01T08:13:34;5.80;99.90
47857;DHT22;33618;49.972;8.242;2023-02-01T08:16:04;5.80;99.90
47857;DHT22;33618;49.972;8.242;2023-02-01T08:18:32;5.90;99.90
47857;DHT22;33618;49.972;8.242;2023-02-01T08:21:32;6.00;99.90
47857;DHT22;33618;49.972;8.242;2023-02-01T08:24:06;6.00;99.90
47857;DHT22;33618;49.972;8.242;2023-02-01T08:26:34;6.00;99.90
47857;DHT22;33618;49.972;8.242;2023-02-01T08:29:04;6.10;99.90
47857;DHT22;33618;49.972;8.242;2023-02-01T08:31:32;6.00;99.90
47857;DHT22;33618;49.972;8.242;2023-02-01T08:34:02;6.10;99.90
47857;DHT22;33618;49.972;8.242;2023-02-01T08:36:35;6.10;99.90
47857;DHT22;33618;49.972;8.242;2023-02-01T08:39:02;6.20;99.90
47857;DHT22;33618;49.972;8.242;2023-02-01T08:41:32;6.20;99.90
47857;DHT22;33618;49.972;8.242;2023-02-01T08:44:04;6.20;99.90
47857;DHT22;33618;49.972;8.242;2023-02-01T08:46:31;6.30;99.90
47857;DHT22;33618;49.972;8.242;2023-02-01T08:48:59;6.30;99.90
47857;DHT22;33618;49.972;8.242;2023-02-01T08:51:26;6.30;99.90
47857;DHT22;33618;49.972;8.242;2023-02-01T08:53:53;6.30;99.90
47857;DHT22;33618;49.972;8.242;2023-02-01T08:56:20;6.30;99.90
47857;DHT22;33618;49.972;8.242;2023-02-01T08:58:47;6.40;99.90
47857;DHT22;33618;49.972;8.242;2023-02-01T09:01:16;6.40;99.90
47857;DHT22;33618;49.972;8.242;2023-02-01T09:03:44;6.40;99.90
47857;DHT22;33618;49.972;8.242;2023-02-01T09:06:13;6.50;99.90
47857;DHT22;33618;49.972;8.242;2023-02-01T09:08:41;6.50;99.90
47857;DHT22;33618;49.972;8.242;2023-02-01T09:11:14;6.50;99.90
47857;DHT22;33618;49.972;8.242;2023-02-01T09:13:42;6.50;99.90
47857;DHT22;33618;49.972;8.242;2023-02-01T09:16:09;6.50;99.90
47857;DHT22;33618;49.972;8.242;2023-02-01T09:18:36;6.50;99.90
47857;DHT22;33618;49.972;8.242;2023-02-01T09:21:21;6.60;99.90
47857;DHT22;33618;49.972;8.242;2023-02-01T09:23:51;6.70;99.90
47857;DHT22;33618;49.972;8.242;2023-02-01T09:26:18;6.80;99.90
47857;DHT22;33618;49.972;8.242;2023-02-01T09:28:56;6.90;99.90
47857;DHT22;33618;49.972;8.242;2023-02-01T09:31:23;7.00;99.90
47857;DHT22;33618;49.972;8.242;2023-02-01T09:33:50;7.10;99.90
47857;DHT22;33618;49.972;8.242;2023-02-01T09:36:17;7.20;99.90
47857;DHT22;33618;49.972;8.242;2023-02-01T09:38:46;7.30;99.90
47857;DHT22;33618;49.972;8.242;2023-02-01T10:08:09;7.40;99.90
47857;DHT22;33618;49.972;8.242;2023-02-01T10:10:46;7.50;99.90
47857;DHT22;33618;49.972;8.242;2023-02-01T10:16:16;7.50;99.90
47857;DHT22;33618;49.972;8.242;2023-02-01T10:22:08;7.60;99.90
47857;DHT22;33618;49.972;8.242;2023-02-01T10:24:21;7.60;99.90
47857;DHT22;33618;49.972;8.242;2023-02-01T10:32:39;7.50;99.90
47857;DHT22;33618;49.972;8.242;2023-02-01T10:35:16;7.50;99.90
47857;DHT22;33618;49.972;8.242;2023-02-01T10:37:44;7.50;99.90
47857;DHT22;33618;49.972;8.242;2023-02-01T10:40:20;7.40;99.90
47857;DHT22;33618;49.972;8.242;2023-02-01T10:42:57;7.40;99.90
47857;DHT22;33618;49.972;8.242;2023-02-01T10:45:28;7.50;99.90
47857;DHT22;33618;49.972;8.242;2023-02-01T10:47:57;7.50;99.90
47857;DHT22;33618;49.972;8.242;2023-02-01T10:50:48;7.50;99.90
47857;DHT22;33618;49.972;8.242;2023-02-01T10:53:28;7.50;99.90
47857;DHT22;33618;49.972;8.242;2023-02-01T10:55:56;7.40;99.90
47857;DHT22;33618;49.972;8.242;2023-02-01T10:58:27;7.40;99.90
47857;DHT22;33618;49.972;8.242;2023-02-01T11:01:01;7.40;99.90
47857;DHT22;33618;49.972;8.242;2023-02-01T11:03:41;7.50;99.90
47857;DHT22;33618;49.972;8.242;2023-02-01T11:06:14;7.40;99.90
47857;DHT22;33618;49.972;8.242;2023-02-01T11:08:49;7.30;99.90
47857;DHT22;33618;49.972;8.242;2023-02-01T11:11:16;7.30;99.90
47857;DHT22;33618;49.972;8.242;2023-02-01T11:13:52;7.30;99.90
47857;DHT22;33618;49.972;8.242;2023-02-01T11:16:19;7.20;99.90
47857;DHT22;33618;49.972;8.242;2023-02-01T11:18:53;7.20;99.90
47857;DHT22;33618;49.972;8.242;2023-02-01T11:21:22;7.10;99.90
47857;DHT22;33618;49.972;8.242;2023-02-01T11:23:50;7.10;99.90
47857;DHT22;33618;49.972;8.242;2023-02-01T11:26:24;7.10;99.90
47857;DHT22;33618;49.972;8.242;2023-02-01T11:29:05;7.10;99.90
47857;DHT22;33618;49.972;8.242;2023-02-01T11:31:35;7.10;99.90
47857;DHT22;33618;49.972;8.242;2023-02-01T11:34:12;7.10;99.90
47857;DHT22;33618;49.972;8.242;2023-02-01T11:36:41;7.10;99.90
47857;DHT22;33618;49.972;8.242;2023-02-01T11:44:37;7.20;99.90
47857;DHT22;33618;49.972;8.242;2023-02-01T11:47:28;7.20;99.90
47857;DHT22;33618;49.972;8.242;2023-02-01T11:50:00;7.20;99.90
47857;DHT22;33618;49.972;8.242;2023-02-01T12:03:34;7.30;99.90
47857;DHT22;33618;49.972;8.242;2023-02-01T12:11:40;7.30;99.90
47857;DHT22;33618;49.972;8.242;2023-02-01T12:14:41;7.30;99.90
47857;DHT22;33618;49.972;8.242;2023-02-01T12:31:17;7.50;99.90
47857;DHT22;33618;49.972;8.242;2023-02-01T12:39:23;7.60;99.90
47857;DHT22;33618;49.972;8.242;2023-02-01T12:44:37;7.50;99.90
47857;DHT22;33618;49.972;8.242;2023-02-01T12:55:25;7.50;99.90
47857;DHT22;33618;49.972;8.242;2023-02-01T12:58:23;7.50;99.90
47857;DHT22;33618;49.972;8.242;2023-02-01T13:00:59;7.50;99.90
47857;DHT22;33618;49.972;8.242;2023-02-01T13:03:37;7.50;99.90
47857;DHT22;33618;49.972;8.242;2023-02-01T13:11:35;7.40;99.90
47857;DHT22;33618;49.972;8.242;2023-02-01T13:16:48;7.40;99.90
47857;DHT22;33618;49.972;8.242;2023-02-01T13:19:27;7.40;99.90
47857;DHT22;33618;49.972;8.242;2023-02-01T13:21:57;7.50;99.90
47857;DHT22;33618;49.972;8.242;2023-02-01T13:27:13;7.60;99.90
47857;DHT22;33618;49.972;8.242;2023-02-01T13:29:55;7.60;99.90
47857;DHT22;33618;49.972;8.242;2023-02-01T13:41:42;7.80;99.90
47857;DHT22;33618;49.972;8.242;2023-02-01T13:44:30;7.90;99.90
47857;DHT22;33618;49.972;8.242;2023-02-01T13:47:02;7.90;99.90
47857;DHT22;33618;49.972;8.242;2023-02-01T13:49:37;8.10;99.90
47857;DHT22;33618;49.972;8.242;2023-02-01T13:52:05;8.00;99.90
47857;DHT22;33618;49.972;8.242;2023-02-01T13:54:35;7.90;99.90
47857;DHT22;33618;49.972;8.242;2023-02-01T13:57:05;7.90;99.90
47857;DHT22;33618;49.972;8.242;2023-02-01T13:59:53;7.80;99.90
47857;DHT22;33618;49.972;8.242;2023-02-01T14:05:12;7.70;99.90
47857;DHT22;33618;49.972;8.242;2023-02-01T14:10:56;7.70;99.90
47857;DHT22;33618;49.972;8.242;2023-02-01T14:13:42;7.70;99.90
47857;DHT22;33618;49.972;8.242;2023-02-01T14:16:14;7.70;99.90
47857;DHT22;33618;49.972;8.242;2023-02-01T14:26:49;7.70;99.90
47857;DHT22;33618;49.972;8.242;2023-02-01T14:42:38;7.80;99.90
47857;DHT22;33618;49.972;8.242;2023-02-01T14:55:46;7.80;99.90
47857;DHT22;33618;49.972;8.242;2023-02-01T15:01:30;7.80;99.90
47857;DHT22;33618;49.972;8.242;2023-02-01T15:04:10;7.80;99.90
47857;DHT22;33618;49.972;8.242;2023-02-01T15:09:34;7.90;99.90
47857;DHT22;33618;49.972;8.242;2023-02-01T15:17:59;7.90;99.90
47857;DHT22;33618;49.972;8.242;2023-02-01T15:21:03;7.90;99.90
47857;DHT22;33618;49.972;8.242;2023-02-01T15:23:50;7.90;99.90
47857;DHT22;33618;49.972;8.242;2023-02-01T15:26:36;7.90;99.90
47857;DHT22;33618;49.972;8.242;2023-02-01T15:29:03;8.00;99.90
47857;DHT22;33618;49.972;8.242;2023-02-01T15:31:36;7.90;99.90
47857;DHT22;33618;49.972;8.242;2023-02-01T15:34:04;7.90;99.90
47857;DHT22;33618;49.972;8.242;2023-02-01T15:36:31;7.90;99.90
47857;DHT22;33618;49.972;8.242;2023-02-01T15:39:22;7.90;99.90
47857;DHT22;33618;49.972;8.242;2023-02-01T15:42:01;7.90;99.90
47857;DHT22;33618;49.972;8.242;2023-02-01T15:44:43;7.90;99.90
47857;DHT22;33618;49.972;8.242;2023-02-01T15:47:18;8.00;99.80
47857;DHT22;33618;49.972;8.242;2023-02-01T15:49:53;8.00;99.60
47857;DHT22;33618;49.972;8.242;2023-02-01T15:52:39;7.90;99.90
47857;DHT22;33618;49.972;8.242;2023-02-01T15:57:44;8.00;99.90
47857;DHT22;33618;49.972;8.242;2023-02-01T16:08:12;7.90;99.90
47857;DHT22;33618;49.972;8.242;2023-02-01T16:10:44;7.90;99.90
47857;DHT22;33618;49.972;8.242;2023-02-01T16:13:13;7.90;99.90
47857;DHT22;33618;49.972;8.242;2023-02-01T16:15:40;7.90;99.90
47857;DHT22;33618;49.972;8.242;2023-02-01T16:18:08;7.90;99.90
47857;DHT22;33618;49.972;8.242;2023-02-01T16:20:36;7.90;99.90
47857;DHT22;33618;49.972;8.242;2023-02-01T16:23:04;7.90;99.90
47857;DHT22;33618;49.972;8.242;2023-02-01T16:25:31;7.90;99.90
47857;DHT22;33618;49.972;8.242;2023-02-01T16:27:58;7.90;99.90
47857;DHT22;33618;49.972;8.242;2023-02-01T16:30:25;7.90;99.90
47857;DHT22;33618;49.972;8.242;2023-02-01T16:32:57;7.80;99.90
47857;DHT22;33618;49.972;8.242;2023-02-01T16:35:28;7.90;99.90
47857;DHT22;33618;49.972;8.242;2023-02-01T16:37:58;7.90;99.90
47857;DHT22;33618;49.972;8.242;2023-02-01T16:40:25;7.80;99.90
47857;DHT22;33618;49.972;8.242;2023-02-01T16:42:53;7.80;99.90
47857;DHT22;33618;49.972;8.242;2023-02-01T16:45:22;7.80;99.90
47857;DHT22;33618;49.972;8.242;2023-02-01T16:47:52;7.80;99.90
47857;DHT22;33618;49.972;8.242;2023-02-01T16:50:22;7.80;99.90
47857;DHT22;33618;49.972;8.242;2023-02-01T16:52:52;7.80;99.90
47857;DHT22;33618;49.972;8.242;2023-02-01T16:55:20;7.70;99.90
47857;DHT22;33618;49.972;8.242;2023-02-01T16:57:49;7.70;99.90
47857;DHT22;33618;49.972;8.242;2023-02-01T17:00:16;7.70;99.90
47857;DHT22;33618;49.972;8.242;2023-02-01T17:02:52;7.60;99.90
47857;DHT22;33618;49.972;8.242;2023-02-01T17:05:19;7.60;99.90
47857;DHT22;33618;49.972;8.242;2023-02-01T17:07:46;7.60;99.90
47857;DHT22;33618;49.972;8.242;2023-02-01T17:26:42;7.30;99.90
47857;DHT22;33618;49.972;8.242;2023-02-01T17:29:10;7.10;99.90
47857;DHT22;33618;49.972;8.242;2023-02-01T17:31:43;7.20;99.90
47857;DHT22;33618;49.972;8.242;2023-02-01T17:34:12;7.10;99.90
47857;DHT22;33618;49.972;8.242;2023-02-01T17:36:42;7.10;99.90
47857;DHT22;33618;49.972;8.242;2023-02-01T17:39:10;7.10;99.90
47857;DHT22;33618;49.972;8.242;2023-02-01T17:41:37;7.20;99.90
47857;DHT22;33618;49.972;8.242;2023-02-01T17:44:04;7.20;99.90
47857;DHT22;33618;49.972;8.242;2023-02-01T17:46:31;7.20;99.90
47857;DHT22;33618;49.972;8.242;2023-02-01T17:48:58;7.20;99.90
47857;DHT22;33618;49.972;8.242;2023-02-01T17:51:26;7.20;99.90
47857;DHT22;33618;49.972;8.242;2023-02-01T17:53:54;7.20;99.90
47857;DHT22;33618;49.972;8.242;2023-02-01T17:56:23;7.20;99.90
47857;DHT22;33618;49.972;8.242;2023-02-01T17:58:51;7.10;99.90
47857;DHT22;33618;49.972;8.242;2023-02-01T18:01:20;7.00;99.90
47857;DHT22;33618;49.972;8.242;2023-02-01T18:03:47;7.00;99.90
47857;DHT22;33618;49.972;8.242;2023-02-01T18:06:17;6.90;99.90
47857;DHT22;33618;49.972;8.242;2023-02-01T18:08:44;6.90;99.90
47857;DHT22;33618;49.972;8.242;2023-02-01T18:11:19;6.90;99.90
47857;DHT22;33618;49.972;8.242;2023-02-01T18:13:47;6.90;99.90
47857;DHT22;33618;49.972;8.242;2023-02-01T18:16:31;6.80;99.90
47857;DHT22;33618;49.972;8.242;2023-02-01T18:18:59;6.80;99.90
47857;DHT22;33618;49.972;8.242;2023-02-01T18:21:40;6.90;99.90
47857;DHT22;33618;49.972;8.242;2023-02-01T18:24:15;6.80;99.90
47857;DHT22;33618;49.972;8.242;2023-02-01T18:26:43;6.80;99.90
47857;DHT22;33618;49.972;8.242;2023-02-01T18:29:10;6.80;99.90
47857;DHT22;33618;49.972;8.242;2023-02-01T18:31:43;6.80;99.90
47857;DHT22;33618;49.972;8.242;2023-02-01T18:34:11;6.80;99.90
47857;DHT22;33618;49.972;8.242;2023-02-01T18:36:42;6.80;99.90
47857;DHT22;33618;49.972;8.242;2023-02-01T18:39:09;6.80;99.90
47857;DHT22;33618;49.972;8.242;2023-02-01T18:41:37;6.80;99.90
47857;DHT22;33618;49.972;8.242;2023-02-01T18:44:04;6.80;99.90
47857;DHT22;33618;49.972;8.242;2023-02-01T18:46:31;6.80;99.90
47857;DHT22;33618;49.972;8.242;2023-02-01T18:48:58;6.80;99.90
47857;DHT22;33618;49.972;8.242;2023-02-01T18:51:25;6.90;99.90
47857;DHT22;33618;49.972;8.242;2023-02-01T18:53:52;6.90;99.90
47857;DHT22;33618;49.972;8.242;2023-02-01T18:56:19;6.90;99.90
47857;DHT22;33618;49.972;8.242;2023-02-01T18:58:46;6.90;99.90
47857;DHT22;33618;49.972;8.242;2023-02-01T19:01:16;6.90;99.90
47857;DHT22;33618;49.972;8.242;2023-02-01T19:03:46;6.90;99.90
47857;DHT22;33618;49.972;8.242;2023-02-01T19:06:18;6.90;99.90
47857;DHT22;33618;49.972;8.242;2023-02-01T19:08:46;6.90;99.90
47857;DHT22;33618;49.972;8.242;2023-02-01T19:11:13;7.00;99.90
47857;DHT22;33618;49.972;8.242;2023-02-01T19:13:40;7.00;99.90
47857;DHT22;33618;49.972;8.242;2023-02-01T19:16:11;7.00;99.90
47857;DHT22;33618;49.972;8.242;2023-02-01T19:18:39;7.00;99.90
47857;DHT22;33618;49.972;8.242;2023-02-01T19:21:09;7.10;99.90
47857;DHT22;33618;49.972;8.242;2023-02-01T19:23:39;7.10;99.90
47857;DHT22;33618;49.972;8.242;2023-02-01T19:26:16;7.10;99.90
47857;DHT22;33618;49.972;8.242;2023-02-01T19:28:44;7.20;99.90
47857;DHT22;33618;49.972;8.242;2023-02-01T19:31:14;7.20;99.90
47857;DHT22;33618;49.972;8.242;2023-02-01T19:33:41;7.20;99.90
47857;DHT22;33618;49.972;8.242;2023-02-01T19:36:08;7.20;99.90
47857;DHT22;33618;49.972;8.242;2023-02-01T19:38:37;7.20;99.90
47857;DHT22;33618;49.972;8.242;2023-02-01T19:41:04;7.20;99.90
47857;DHT22;33618;49.972;8.242;2023-02-01T19:43:32;7.30;99.90
47857;DHT22;33618;49.972;8.242;2023-02-01T19:45:59;7.30;99.90
47857;DHT22;33618;49.972;8.242;2023-02-01T19:48:29;7.30;99.90
47857;DHT22;33618;49.972;8.242;2023-02-01T19:50:57;7.40;99.90
47857;DHT22;33618;49.972;8.242;2023-02-01T19:53:25;7.30;99.90
47857;DHT22;33618;49.972;8.242;2023-02-01T19:55:57;7.40;99.90
47857;DHT22;33618;49.972;8.242;2023-02-01T19:58:25;7.40;99.90
47857;DHT22;33618;49.972;8.242;2023-02-01T20:00:53;7.40;99.90